SE14 weather

San Carlos Airport
José Real, Guayas Province, Ecuador

Public forecast

Using degrees Celsius for public forecast. Weather courtesy of forecast.io.

Closest aviation weather report (METAR) to San Carlos Airport

Closest report is José Joaquín de Olmedo International Airport, 27.0 nm (50.0 km) W. Retrieved 2020/06/03 15:00 UTC (54 minutes ago):

SEGU 031500Z 15003KT 9999 BKN026 OVC100 25/22 Q1013 NOSIG RMK A2994

Closest aviation forecast (TAF) to San Carlos Airport

Closest forecast is José Joaquín de Olmedo International Airport, 27.0 nm (50.0 km) W. Retrieved 2020/06/03 12:24 UTC (3 hours ago):

TAF COR SEGU 030925Z 0312/0412 14005KT 9999 BKN023 BKN100 BECMG 0314/0316 SCT026 BKN300 BECMG 0321/0324 22012KT BKN023 BKN200 BECMG 0401/0403 21006KT 9999 BKN023 BKN100 TX32/0320Z TN23/0410Z